Airfield :
LOGIN :

Register | Disclaimer

   EN    FR    IT 

 










Legend :    VFR   Marginal VFR   IFR   Intensive IFR   Very Intensive IFR
Visi :
Ceiling :
>= 8 km
>= 3000ft
5 to 8 km
1000 to 3000 ft
1500m to 5 km
500 to 1000 ft
800 to 1500m
200 to 500 ft
< 800m
< 200 ft
Symbols :   Thunderstorms  Fog  Heavy snow  Heavy precipitations  Wind > 20 kt
SIGMETs :     Misc.  Thunderstorms  Icing  Turbulence  Mountain Waves  Volcanic Ashes







- Airport Elevation : 245 ft
- IATA code : BIQ
- Download approach charts


LFBZ - Biarritz

CURRENT METAR :
  • 260930Z AUTO 31011KT 9999 BKN005 BKN035 OVC044 15/13 Q1023 TEMPO FEW015TCU BKN020

EXPIRED METARs :
  • 260900Z AUTO 29010KT 9999 BKN006 OVC013 15/14 Q1023 TEMPO 4000 -RADZ FEW015TCU BKN020
  • 260830Z AUTO 28009KT 9999 BKN007 OVC013 14/14 Q1023 TEMPO 4000 -RADZ FEW015TCU BKN020
  • 260800Z AUTO 29011KT 8000 -RA OVC010 14/13 Q1023 TEMPO 4000 -RADZ
  • 260730Z AUTO 29010KT 9999 BKN012 OVC018 14/13 Q1023 TEMPO 4000 -RADZ OVC008
  • 260700Z AUTO 29007KT 9999 BKN010 BKN017 OVC022 14/13 Q1023 TEMPO 4000 -RADZ
  • 260630Z AUTO 29008KT 9999 FEW009 BKN021 OVC029 14/13 Q1023 TEMPO 4000 -RADZ OVC008

TAF TAF LFBZ
Valid from the 26 at 06:00 until the 27 at 06:00 UTC


260500Z 2606/2706 30010KT 9999 BKN012 BKN030
TEMPO 2606/2610 BKN008
PROB30
TEMPO 2606/2610 4000 -RADZ OVC008
BECMG 2610/2611 BKN025
PROB30
TEMPO 2610/2615 5000 -SHRA FEW015TCU BKN020
No reported NOTAMs for that airfield.



MET'MAP, your aeronautical weather chart ! - Copyright ORBIFLY December 2007 - Disclaimer

ORBIFLY MET'MAP TEAM :

Programming & Development : Alexandra Zaïnal
Concept & Development : Baudouin d'Aumeries
Co-Development & Prog : Marc-Olivier Méhu
Technical & hardware support : Manuel Goepfert

Contact : metmap@orbifly.com




SOURCES & CREDITS :

   NOAA